Time;durP1;ratioP1;P1;durP2;ratioP2;P2;SDS_P1;SDS_P2;PMS_P1;PMS_P2;Temp;Humidity;BMP_temperature;BMP_pressure;BME280_temperature;BME280_humidity;BME280_pressure;Samples;Min_cycle;Max_cycle;Signal;HPM_P1;HPM_P2
2022/05/05 00:00:01;;;;;;;5.17;4.83;;;;;;;;;;4978561;28;20429;-90
2022/05/05 00:02:34;;;;;;;4.77;4.47;;;;;;;;;;4976938;28;20480;-90
2022/05/05 00:05:02;;;;;;;5.57;4.70;;;;;;;;;;4974641;28;20963;-90
2022/05/05 00:07:28;;;;;;;5.40;5.00;;;;;;;;;;4962813;28;20450;-90
2022/05/05 00:14:23;;;;;;;5.40;5.00;;;;;;;;;;4968404;28;20504;-90
2022/05/05 00:15:33;;;;;;;5.60;5.20;;;;;;;;;;4969834;28;20412;-90
2022/05/05 00:17:59;;;;;;;4.67;4.40;;;;;;;;;;4966758;28;20809;-90
2022/05/05 00:20:25;;;;;;;6.70;5.90;;;;;;;;;;4975330;28;20433;-90
2022/05/05 00:23:02;;;;;;;4.87;4.47;;;;;;;;;;4979569;28;20487;-90
2022/05/05 00:25:28;;;;;;;5.57;5.17;;;;;;;;;;4955843;28;20441;-90
2022/05/05 00:27:57;;;;;;;5.13;4.83;;;;;;;;;;4980245;28;20429;-89
2022/05/05 00:30:43;;;;;;;6.70;5.00;;;;;;;;;;4965277;28;20716;-85
2022/05/05 00:33:49;;;;;;;7.83;4.90;;;;;;;;;;4982960;28;20417;-86
2022/05/05 00:36:55;;;;;;;6.30;5.70;;;;;;;;;;4974505;28;20449;-86
2022/05/05 00:40:00;;;;;;;6.30;5.03;;;;;;;;;;4979560;28;20417;-87
2022/05/05 00:43:06;;;;;;;5.00;4.70;;;;;;;;;;4963655;28;20523;-87
2022/05/05 00:46:12;;;;;;;6.83;5.67;;;;;;;;;;4975491;28;20424;-86
2022/05/05 00:49:18;;;;;;;5.93;5.50;;;;;;;;;;4976009;28;20446;-87
2022/05/05 00:52:24;;;;;;;4.57;4.37;;;;;;;;;;4974882;28;20457;-87
2022/05/05 00:55:30;;;;;;;5.47;4.70;;;;;;;;;;4984508;28;20440;-86
2022/05/05 00:58:36;;;;;;;5.00;4.57;;;;;;;;;;4976280;28;20441;-87
2022/05/05 01:01:42;;;;;;;10.50;4.73;;;;;;;;;;4967670;28;20579;-87
2022/05/05 01:04:47;;;;;;;5.00;4.70;;;;;;;;;;4978535;28;20826;-87
2022/05/05 01:07:53;;;;;;;7.73;6.13;;;;;;;;;;4982921;28;20459;-87
2022/05/05 01:10:59;;;;;;;6.80;4.33;;;;;;;;;;4976081;28;20545;-87
2022/05/05 01:14:05;;;;;;;7.50;4.70;;;;;;;;;;4965878;28;20822;-87
2022/05/05 01:17:11;;;;;;;4.37;4.07;;;;;;;;;;4969526;28;20433;-87
2022/05/05 01:20:17;;;;;;;5.37;4.97;;;;;;;;;;4965759;28;20473;-87
2022/05/05 01:23:23;;;;;;;5.47;4.63;;;;;;;;;;4964689;28;20480;-86
2022/05/05 01:29:33;;;;;;;6.07;5.47;;;;;;;;;;4974679;28;20649;-86
2022/05/05 01:32:39;;;;;;;5.73;5.23;;;;;;;;;;4961496;28;20421;-87
2022/05/05 01:35:45;;;;;;;5.07;4.80;;;;;;;;;;4962101;28;20425;-87
2022/05/05 01:38:51;;;;;;;5.30;4.80;;;;;;;;;;4976645;28;20447;-87
2022/05/05 01:41:56;;;;;;;5.27;4.70;;;;;;;;;;4965084;28;20448;-87
2022/05/05 01:45:02;;;;;;;6.17;4.93;;;;;;;;;;4974966;28;20504;-87
2022/05/05 01:48:08;;;;;;;5.47;5.03;;;;;;;;;;4951555;28;20449;-87
2022/05/05 01:51:14;;;;;;;5.80;5.30;;;;;;;;;;4971825;28;20436;-87
2022/05/05 01:54:20;;;;;;;6.00;5.43;;;;;;;;;;4976181;28;20425;-87
2022/05/05 01:57:26;;;;;;;7.33;5.77;;;;;;;;;;4978694;28;20776;-87
2022/05/05 02:00:32;;;;;;;5.10;4.80;;;;;;;;;;4951034;29;20956;-87
2022/05/05 02:03:38;;;;;;;7.07;6.37;;;;;;;;;;4973483;28;20997;-87
2022/05/05 02:06:43;;;;;;;5.33;4.70;;;;;;;;;;4991012;28;20459;-87
2022/05/05 02:09:49;;;;;;;5.63;5.30;;;;;;;;;;4977941;28;20444;-87
2022/05/05 02:12:58;;;;;;;7.17;5.10;;;;;;;;;;4980368;28;20430;-87
2022/05/05 02:16:01;;;;;;;5.80;5.43;;;;;;;;;;4968920;28;20440;-87
2022/05/05 02:19:07;;;;;;;5.43;5.00;;;;;;;;;;4979881;28;20444;-87
2022/05/05 02:22:14;;;;;;;6.80;6.20;;;;;;;;;;4966762;28;20753;-87
2022/05/05 02:25:18;;;;;;;5.60;5.07;;;;;;;;;;4967855;28;20444;-86
2022/05/05 02:28:26;;;;;;;6.20;5.40;;;;;;;;;;4973797;28;20434;-87
2022/05/05 02:31:30;;;;;;;5.97;5.60;;;;;;;;;;4972152;28;20500;-86
2022/05/05 02:34:36;;;;;;;5.67;4.43;;;;;;;;;;4974300;28;20823;-87
2022/05/05 02:40:47;;;;;;;12.40;5.70;;;;;;;;;;4966925;28;21149;-87
2022/05/05 02:43:53;;;;;;;9.90;6.60;;;;;;;;;;4976100;28;20485;-86
2022/05/05 02:47:00;;;;;;;6.40;5.90;;;;;;;;;;4977980;28;20435;-86
2022/05/05 02:50:04;;;;;;;13.20;5.70;;;;;;;;;;4986736;28;20444;-87
2022/05/05 02:56:16;;;;;;;6.63;5.87;;;;;;;;;;4967450;28;20521;-86
2022/05/05 02:59:21;;;;;;;9.60;5.77;;;;;;;;;;4977063;28;20416;-87
2022/05/05 03:02:27;;;;;;;6.00;5.53;;;;;;;;;;4953661;28;20468;-87
2022/05/05 03:05:33;;;;;;;6.67;6.07;;;;;;;;;;4980762;28;20439;-86
2022/05/05 03:08:38;;;;;;;7.97;6.23;;;;;;;;;;4988751;28;20821;-87
2022/05/05 03:11:44;;;;;;;6.40;5.80;;;;;;;;;;4979246;28;20938;-87
2022/05/05 03:14:50;;;;;;;7.00;5.97;;;;;;;;;;4982890;28;20436;-87
2022/05/05 03:17:56;;;;;;;6.20;5.03;;;;;;;;;;4965232;28;20432;-87
2022/05/05 03:21:02;;;;;;;5.70;5.30;;;;;;;;;;4983417;28;20779;-87
2022/05/05 03:24:08;;;;;;;6.17;5.77;;;;;;;;;;4995485;28;20984;-87
2022/05/05 03:27:14;;;;;;;5.80;5.30;;;;;;;;;;4983369;28;20431;-87
2022/05/05 03:30:20;;;;;;;7.83;6.20;;;;;;;;;;4992935;28;20500;-87
2022/05/05 03:33:25;;;;;;;7.57;5.70;;;;;;;;;;4973640;28;20419;-87
2022/05/05 03:36:31;;;;;;;7.00;6.30;;;;;;;;;;4985696;28;20466;-87
2022/05/05 03:39:37;;;;;;;5.87;5.43;;;;;;;;;;4988643;28;20566;-88
2022/05/05 03:42:43;;;;;;;5.40;5.03;;;;;;;;;;4989585;28;20514;-88
2022/05/05 03:45:49;;;;;;;6.67;6.17;;;;;;;;;;4981816;28;20858;-87
2022/05/05 03:48:55;;;;;;;6.97;5.67;;;;;;;;;;4976907;28;20515;-88
2022/05/05 03:52:00;;;;;;;10.87;6.00;;;;;;;;;;4990173;28;20926;-86
2022/05/05 03:55:07;;;;;;;6.67;5.43;;;;;;;;;;4980530;28;20505;-86
2022/05/05 03:58:12;;;;;;;5.80;4.93;;;;;;;;;;4989202;28;20471;-86
2022/05/05 04:01:18;;;;;;;7.10;5.70;;;;;;;;;;4983517;28;20440;-86
2022/05/05 04:04:25;;;;;;;7.70;5.13;;;;;;;;;;4987956;28;20440;-87
2022/05/05 04:07:30;;;;;;;5.90;5.40;;;;;;;;;;4984127;28;20452;-87
2022/05/05 04:10:36;;;;;;;6.17;5.67;;;;;;;;;;4985432;28;20427;-87
2022/05/05 04:13:41;;;;;;;6.00;5.43;;;;;;;;;;4983749;28;20456;-87
2022/05/05 04:16:47;;;;;;;7.50;6.03;;;;;;;;;;4989914;28;20427;-87
2022/05/05 04:19:54;;;;;;;11.63;5.60;;;;;;;;;;4984565;28;20432;-87
2022/05/05 04:22:59;;;;;;;9.20;5.83;;;;;;;;;;4978926;28;20838;-87
2022/05/05 04:26:05;;;;;;;7.97;5.10;;;;;;;;;;5003071;28;20523;-87
2022/05/05 04:29:11;;;;;;;8.90;8.00;;;;;;;;;;4988035;28;20435;-87
2022/05/05 04:32:17;;;;;;;7.00;6.00;;;;;;;;;;4992059;28;20482;-88
2022/05/05 04:35:24;;;;;;;5.57;5.10;;;;;;;;;;4991592;28;20472;-87
2022/05/05 04:38:30;;;;;;;6.33;5.63;;;;;;;;;;4978082;28;20930;-86
2022/05/05 04:41:36;;;;;;;6.67;6.27;;;;;;;;;;4992817;28;20432;-88
2022/05/05 04:44:41;;;;;;;6.53;5.90;;;;;;;;;;4985584;28;20510;-88
2022/05/05 04:47:47;;;;;;;6.50;6.07;;;;;;;;;;4981991;28;20429;-88
2022/05/05 04:50:53;;;;;;;6.90;5.30;;;;;;;;;;4992609;28;20436;-85
2022/05/05 04:53:59;;;;;;;6.03;5.53;;;;;;;;;;4999217;28;20435;-86
2022/05/05 04:57:05;;;;;;;7.80;5.63;;;;;;;;;;4992378;28;20428;-86
2022/05/05 05:00:11;;;;;;;6.63;6.00;;;;;;;;;;4991273;28;20428;-86
2022/05/05 05:02:57;;;;;;;5.73;5.30;;;;;;;;;;4993023;28;20587;-87
2022/05/05 05:05:23;;;;;;;9.87;6.90;;;;;;;;;;4995003;28;20488;-86
2022/05/05 05:07:49;;;;;;;7.20;6.10;;;;;;;;;;4993695;28;20440;-86
2022/05/05 05:10:35;;;;;;;6.43;5.87;;;;;;;;;;4995436;28;20675;-87
2022/05/05 05:13:41;;;;;;;8.20;5.40;;;;;;;;;;4986068;28;20436;-86
2022/05/05 05:16:47;;;;;;;6.20;5.70;;;;;;;;;;4979579;28;20417;-89
2022/05/05 05:19:53;;;;;;;5.73;5.30;;;;;;;;;;4981508;28;20421;-88
2022/05/05 05:22:59;;;;;;;6.00;5.40;;;;;;;;;;4983386;28;20471;-87
2022/05/05 05:26:05;;;;;;;7.10;6.50;;;;;;;;;;4983070;28;20929;-87
2022/05/05 05:29:11;;;;;;;6.57;6.17;;;;;;;;;;4992233;28;20451;-89
2022/05/05 05:32:22;;;;;;;6.04;5.46;;;;;;;;;;4482234;28;10002670;-87
2022/05/05 05:35:28;;;;;;;6.40;5.20;;;;;;;;;;4995355;28;20769;-87
2022/05/05 05:38:33;;;;;;;6.83;5.60;;;;;;;;;;4997615;28;20791;-87
2022/05/05 05:41:39;;;;;;;6.57;5.83;;;;;;;;;;4987544;28;21040;-87
2022/05/05 05:44:45;;;;;;;6.57;5.90;;;;;;;;;;4986945;28;20451;-87
2022/05/05 05:47:51;;;;;;;6.97;6.47;;;;;;;;;;4987002;28;20781;-84
2022/05/05 05:50:57;;;;;;;7.70;5.90;;;;;;;;;;4989460;28;20997;-87
2022/05/05 05:54:03;;;;;;;7.10;6.47;;;;;;;;;;4992519;28;20510;-87
2022/05/05 05:57:09;;;;;;;6.33;5.83;;;;;;;;;;4980456;28;20461;-88
2022/05/05 06:00:28;;;;;;;6.63;6.10;;;;;;;;;;4988214;28;20471;-88
2022/05/05 06:06:35;;;;;;;8.73;6.57;;;;;;;;;;4987847;28;20479;-92
2022/05/05 06:09:41;;;;;;;7.57;6.20;;;;;;;;;;4998318;28;20465;-87
2022/05/05 06:12:47;;;;;;;7.77;5.87;;;;;;;;;;4992960;28;21149;-86
2022/05/05 06:15:59;;;;;;;8.00;6.73;;;;;;;;;;5000955;28;20482;-89
2022/05/05 06:19:08;;;;;;;6.53;6.00;;;;;;;;;;4999393;28;20494;-89
2022/05/05 06:22:15;;;;;;;8.43;6.40;;;;;;;;;;4994871;28;20464;-89
2022/05/05 06:25:23;;;;;;;7.13;5.70;;;;;;;;;;4994288;28;20512;-87
2022/05/05 06:28:33;;;;;;;6.17;5.10;;;;;;;;;;4993744;28;20484;-93
2022/05/05 06:31:42;;;;;;;10.27;6.70;;;;;;;;;;5001280;28;20451;-93
2022/05/05 06:34:32;;;;;;;6.80;5.87;;;;;;;;;;5018272;28;20436;-93
2022/05/05 06:37:24;;;;;;;7.60;6.20;;;;;;;;;;5251557;23;20504;-96
2022/05/05 06:39:50;;;;;;;10.27;6.40;;;;;;;;;;5001754;28;20437;-89
2022/05/05 06:42:47;;;;;;;8.17;7.50;;;;;;;;;;4993141;28;20481;-94
2022/05/05 06:45:27;;;;;;;10.30;7.20;;;;;;;;;;4994602;28;20413;-94
2022/05/05 06:48:14;;;;;;;8.57;6.67;;;;;;;;;;4986808;28;20439;-93
2022/05/05 06:50:46;;;;;;;7.80;7.20;;;;;;;;;;4988061;28;20439;-94
2022/05/05 06:53:12;;;;;;;6.67;6.10;;;;;;;;;;5004954;28;20560;-90
2022/05/05 06:55:49;;;;;;;6.93;6.20;;;;;;;;;;5003109;28;20537;-92
2022/05/05 07:06:38;;;;;;;7.20;6.60;;;;;;;;;;4997523;28;20420;-93
2022/05/05 07:11:58;;;;;;;10.10;7.53;;;;;;;;;;5000771;28;20432;-91
2022/05/05 07:17:30;;;;;;;10.17;8.67;;;;;;;;;;5000623;28;20484;-93
2022/05/05 07:19:56;;;;;;;7.93;7.20;;;;;;;;;;5004979;28;20420;-89
2022/05/05 07:22:22;;;;;;;7.70;6.87;;;;;;;;;;5002460;28;20464;-92
2022/05/05 07:24:48;;;;;;;14.07;7.33;;;;;;;;;;4988812;28;20435;-87
2022/05/05 07:27:39;;;;;;;14.07;9.90;;;;;;;;;;5037152;23;20514;-94
2022/05/05 07:32:48;;;;;;;8.00;7.00;;;;;;;;;;3875266;23;20439;-87
2022/05/05 07:41:38;;;;;;;8.97;8.10;;;;;;;;;;5282459;23;21586;-91
2022/05/05 08:06:31;;;;;;;12.33;7.00;;;;;;;;;;5031706;23;20498;-91
2022/05/05 08:09:01;;;;;;;7.00;6.30;;;;;;;;;;5345646;23;20578;-93
2022/05/05 08:11:44;;;;;;;6.07;4.67;;;;;;;;;;4995133;28;20414;-91
2022/05/05 08:31:21;;;;;;;10.87;7.40;;;;;;;;;;4911337;29;20443;-89
2022/05/05 08:33:53;;;;;;;7.20;6.60;;;;;;;;;;4908197;29;20505;-95
2022/05/05 08:36:28;;;;;;;9.40;7.80;;;;;;;;;;4904112;29;20468;-93
2022/05/05 08:39:05;;;;;;;9.00;7.77;;;;;;;;;;4920334;29;20423;-93
2022/05/05 08:41:32;;;;;;;9.23;7.30;;;;;;;;;;4954187;29;20422;-91
2022/05/05 08:44:01;;;;;;;9.10;8.23;;;;;;;;;;4954073;29;20482;-88
2022/05/05 08:46:28;;;;;;;8.93;8.00;;;;;;;;;;4953474;29;20462;-90
2022/05/05 09:02:58;;;;;;;8.00;7.20;;;;;;;;;;4482791;23;20785;-93
2022/05/05 09:05:43;;;;;;;11.30;8.67;;;;;;;;;;4979208;28;20456;-91
2022/05/05 09:08:11;;;;;;;8.93;8.10;;;;;;;;;;4993397;28;20515;-88
2022/05/05 09:18:58;;;;;;;11.37;10.37;;;;;;;;;;5088120;23;20515;-92
2022/05/05 09:21:57;;;;;;;9.60;8.80;;;;;;;;;;4977109;29;20520;-93
2022/05/05 09:27:51;;;;;;;;;;;;;;;;;;;;;
2022/05/05 09:31:19;;;;;;;13.10;9.53;;;;;;;;;;5010339;28;20463;-94
2022/05/05 09:36:26;;;;;;;14.93;9.47;;;;;;;;;;5063541;23;20511;-92
2022/05/05 09:39:42;;;;;;;;;;;;;;;;;;;;;
2022/05/05 09:42:13;;;;;;;10.80;9.70;;;;;;;;;;4973992;28;20695;-91
2022/05/05 09:44:52;;;;;;;12.40;9.57;;;;;;;;;;4961505;29;20521;-91
2022/05/05 09:47:19;;;;;;;10.53;9.53;;;;;;;;;;4967718;28;20430;-92
2022/05/05 09:50:07;;;;;;;10.83;9.63;;;;;;;;;;4961154;28;20464;-90
2022/05/05 09:58:57;;;;;;;11.97;10.90;;;;;;;;;;4916863;29;21054;-93
2022/05/05 10:01:55;;;;;;;11.83;10.57;;;;;;;;;;4892257;29;20517;-92
2022/05/05 10:04:25;;;;;;;11.93;10.83;;;;;;;;;;4896037;29;20474;-91
2022/05/05 10:06:52;;;;;;;10.17;9.20;;;;;;;;;;4955816;28;20503;-90
2022/05/05 10:09:18;;;;;;;11.00;10.03;;;;;;;;;;4979214;28;20475;-87
2022/05/05 10:14:59;;;;;;;15.47;10.90;;;;;;;;;;4966206;28;20495;-92
2022/05/05 10:17:38;;;;;;;11.80;10.70;;;;;;;;;;4960711;28;20436;-94
2022/05/05 10:20:14;;;;;;;11.53;10.50;;;;;;;;;;4983265;28;20436;-92
2022/05/05 10:26:26;;;;;;;12.53;11.30;;;;;;;;;;4977246;23;22716;-89
2022/05/05 10:28:55;;;;;;;11.93;10.83;;;;;;;;;;5082381;23;20541;-90
2022/05/05 10:31:37;;;;;;;12.00;10.77;;;;;;;;;;4989345;28;20442;-90
2022/05/05 10:34:26;;;;;;;17.63;12.00;;;;;;;;;;4958784;28;20434;-91
2022/05/05 10:37:03;;;;;;;13.30;12.00;;;;;;;;;;4992283;28;20397;-90
2022/05/05 10:39:45;;;;;;;12.73;11.60;;;;;;;;;;4972988;28;20445;-89
2022/05/05 10:50:57;;;;;;;11.83;10.80;;;;;;;;;;4984038;28;20544;-92
2022/05/05 10:54:05;;;;;;;;;;;;;;;;;;;;;
2022/05/05 11:07:36;;;;;;;11.90;10.70;;;;;;;;;;2493523;26;10002185;-89
2022/05/05 11:10:03;;;;;;;11.20;10.10;;;;;;;;;;4967201;28;20186;-89
2022/05/05 11:12:36;;;;;;;11.60;10.70;;;;;;;;;;4968524;28;20429;-90
2022/05/05 11:23:31;;;;;;;10.90;9.90;;;;;;;;;;4991120;28;20479;-88
2022/05/05 11:25:58;;;;;;;12.27;10.50;;;;;;;;;;4996332;28;20552;-87
2022/05/05 11:28:29;;;;;;;11.40;10.17;;;;;;;;;;4973612;28;20535;-87
2022/05/05 11:30:55;;;;;;;14.97;10.13;;;;;;;;;;4948155;28;20453;-89
2022/05/05 11:33:21;;;;;;;10.10;8.60;;;;;;;;;;4983363;28;20452;-88
2022/05/05 11:36:00;;;;;;;10.17;9.27;;;;;;;;;;4973982;28;20422;-86
2022/05/05 11:38:28;;;;;;;10.80;9.80;;;;;;;;;;4946418;28;20499;-90
2022/05/05 11:41:05;;;;;;;19.60;11.13;;;;;;;;;;4986807;28;20504;-88
2022/05/05 11:46:20;;;;;;;11.33;9.97;;;;;;;;;;4944421;28;20485;-89
2022/05/05 11:48:55;;;;;;;10.23;8.80;;;;;;;;;;5000749;28;20420;-89
2022/05/05 11:51:22;;;;;;;9.47;8.77;;;;;;;;;;4966087;28;20508;-89
2022/05/05 11:53:48;;;;;;;17.90;9.27;;;;;;;;;;4985377;28;20847;-90
2022/05/05 11:56:19;;;;;;;9.80;8.87;;;;;;;;;;4991311;28;20488;-94
2022/05/05 12:01:40;;;;;;;9.10;8.50;;;;;;;;;;4977882;28;20440;-91
2022/05/05 12:04:08;;;;;;;10.43;9.60;;;;;;;;;;4971586;28;20480;-92
2022/05/05 12:06:34;;;;;;;9.50;8.50;;;;;;;;;;4977624;28;20433;-92
2022/05/05 12:09:06;;;;;;;9.23;8.20;;;;;;;;;;4988017;28;20442;-92
2022/05/05 12:11:32;;;;;;;8.23;7.63;;;;;;;;;;4967081;28;20418;-91
2022/05/05 12:14:09;;;;;;;11.50;10.27;;;;;;;;;;5000409;28;20444;-92
2022/05/05 12:16:36;;;;;;;10.07;9.17;;;;;;;;;;4985191;28;20417;-91
2022/05/05 12:19:26;;;;;;;12.80;11.57;;;;;;;;;;4981098;28;20440;-93
2022/05/05 12:22:10;;;;;;;12.20;10.90;;;;;;;;;;4975026;28;20503;-87
2022/05/05 12:24:36;;;;;;;10.80;9.80;;;;;;;;;;4994897;28;20463;-90
2022/05/05 12:27:11;;;;;;;11.10;9.40;;;;;;;;;;4997400;28;20443;-93
2022/05/05 12:29:49;;;;;;;13.80;10.07;;;;;;;;;;4950941;29;20504;-93
2022/05/05 12:32:31;;;;;;;10.80;9.67;;;;;;;;;;4975401;28;20449;-93
2022/05/05 12:35:02;;;;;;;11.27;10.20;;;;;;;;;;4993685;28;20556;-92
2022/05/05 12:37:39;;;;;;;10.67;9.13;;;;;;;;;;4961535;28;20432;-91
2022/05/05 12:40:31;;;;;;;;;;;;;;;;;;;;;
2022/05/05 12:45:48;;;;;;;12.80;11.80;;;;;;;;;;4415525;23;10001440;-88
2022/05/05 12:48:57;;;;;;;12.43;11.17;;;;;;;;;;4979937;28;20444;-92
2022/05/05 12:51:49;;;;;;;12.37;11.17;;;;;;;;;;4984151;28;20435;-92
2022/05/05 12:59:36;;;;;;;14.63;11.63;;;;;;;;;;4985163;28;20454;-91
2022/05/05 12:59:55;;;;;;;12.27;10.70;;;;;;;;;;4990169;28;20426;-91
2022/05/05 13:03:39;;;;;;;13.43;12.13;;;;;;;;;;4994259;28;20883;-91
2022/05/05 13:05:56;;;;;;;14.63;11.03;;;;;;;;;;4995731;28;20424;-91
2022/05/05 13:08:24;;;;;;;12.67;11.47;;;;;;;;;;5003335;28;20523;-91
2022/05/05 13:26:47;;;;;;;12.63;11.53;;;;;;;;;;4992134;28;20524;-90
2022/05/05 13:29:13;;;;;;;12.13;9.97;;;;;;;;;;4972737;28;20536;-90
2022/05/05 13:32:05;;;;;;;11.00;9.50;;;;;;;;;;4964797;28;20962;-91
2022/05/05 13:35:00;;;;;;;10.70;9.60;;;;;;;;;;4949027;29;20482;-89
2022/05/05 13:40:52;;;;;;;9.63;8.83;;;;;;;;;;4920412;29;20462;-91
2022/05/05 13:43:18;;;;;;;14.73;9.67;;;;;;;;;;4927564;29;20576;-90
2022/05/05 13:45:44;;;;;;;10.47;9.40;;;;;;;;;;4944058;28;20452;-91
2022/05/05 13:48:10;;;;;;;9.67;8.60;;;;;;;;;;4976126;28;20437;-92
2022/05/05 13:50:38;;;;;;;10.73;9.53;;;;;;;;;;5002268;28;20653;-94
2022/05/05 13:53:04;;;;;;;13.70;10.20;;;;;;;;;;5009618;28;20470;-93
2022/05/05 13:55:32;;;;;;;10.50;9.53;;;;;;;;;;5007576;28;20432;-94
2022/05/05 13:58:01;;;;;;;12.50;10.17;;;;;;;;;;4984321;28;20471;-91
2022/05/05 14:00:27;;;;;;;11.73;10.77;;;;;;;;;;4986741;28;20408;-92
2022/05/05 14:02:53;;;;;;;11.00;9.90;;;;;;;;;;4988166;28;20554;-92
2022/05/05 14:05:23;;;;;;;12.60;11.50;;;;;;;;;;4990408;28;20473;-93
2022/05/05 14:13:26;;;;;;;11.93;9.67;;;;;;;;;;5010360;28;20511;-90
2022/05/05 14:15:52;;;;;;;9.00;8.00;;;;;;;;;;5010646;28;20431;-91
2022/05/05 14:18:18;;;;;;;9.70;7.87;;;;;;;;;;5010906;28;20423;-94
2022/05/05 14:20:44;;;;;;;8.90;8.13;;;;;;;;;;5012305;28;20952;-94
2022/05/05 14:23:12;;;;;;;8.53;7.63;;;;;;;;;;5010489;28;20595;-93
2022/05/05 14:25:38;;;;;;;8.97;8.10;;;;;;;;;;5013136;28;20641;-92
2022/05/05 14:28:04;;;;;;;9.40;8.10;;;;;;;;;;5008128;28;20535;-87
2022/05/05 14:30:30;;;;;;;9.40;8.57;;;;;;;;;;5009980;28;20435;-91
2022/05/05 14:32:56;;;;;;;7.50;6.80;;;;;;;;;;5010990;28;20462;-92
2022/05/05 14:35:23;;;;;;;9.07;8.30;;;;;;;;;;5003224;28;20412;-92
2022/05/05 14:37:49;;;;;;;8.60;7.57;;;;;;;;;;5020836;28;20429;-92
2022/05/05 14:40:15;;;;;;;11.20;8.57;;;;;;;;;;4991545;28;20432;-92
2022/05/05 14:42:41;;;;;;;8.47;7.50;;;;;;;;;;4981521;28;20993;-91
2022/05/05 14:45:08;;;;;;;8.50;7.70;;;;;;;;;;4981505;28;20425;-93
2022/05/05 14:47:34;;;;;;;8.30;7.50;;;;;;;;;;4984736;28;20451;-94
2022/05/05 14:50:00;;;;;;;8.10;7.07;;;;;;;;;;4985017;28;20517;-91
2022/05/05 14:52:29;;;;;;;7.80;7.20;;;;;;;;;;4984261;28;20436;-92
2022/05/05 14:54:56;;;;;;;8.50;7.80;;;;;;;;;;4989581;28;20483;-94
2022/05/05 14:57:23;;;;;;;8.83;7.40;;;;;;;;;;4984214;28;20476;-93
2022/05/05 14:59:49;;;;;;;10.17;8.37;;;;;;;;;;4987330;28;20428;-90
2022/05/05 15:02:15;;;;;;;6.87;6.37;;;;;;;;;;5009463;28;20484;-91
2022/05/05 15:04:42;;;;;;;7.80;7.20;;;;;;;;;;4984321;28;20440;-93
2022/05/05 15:07:28;;;;;;;8.33;7.23;;;;;;;;;;4989858;28;20448;-93
2022/05/05 15:13:44;;;;;;;7.43;7.00;;;;;;;;;;4983672;28;20427;-92
2022/05/05 15:16:52;;;;;;;8.20;7.10;;;;;;;;;;5023786;28;20537;-93
2022/05/05 15:19:56;;;;;;;7.37;6.87;;;;;;;;;;5017840;28;20411;-93
2022/05/05 15:23:02;;;;;;;7.00;6.60;;;;;;;;;;4995774;28;20472;-93
2022/05/05 15:26:16;;;;;;;8.40;7.70;;;;;;;;;;4991149;28;20437;-94
2022/05/05 15:29:22;;;;;;;8.73;7.85;;;;;;;;;;4827242;23;10001897;-93
2022/05/05 15:32:32;;;;;;;7.87;7.17;;;;;;;;;;4993051;28;20232;-92
2022/05/05 15:35:39;;;;;;;7.63;7.03;;;;;;;;;;5163800;23;20539;-91
2022/05/05 15:38:49;;;;;;;7.40;6.70;;;;;;;;;;5006997;28;20432;-93
2022/05/05 15:42:05;;;;;;;9.17;7.37;;;;;;;;;;5235522;23;20473;-92
2022/05/05 15:45:08;;;;;;;9.03;6.93;;;;;;;;;;5057454;28;20449;-90
2022/05/05 15:48:17;;;;;;;7.40;6.90;;;;;;;;;;5040651;28;20724;-92
2022/05/05 15:51:24;;;;;;;8.23;7.23;;;;;;;;;;5046467;28;20434;-95
2022/05/05 15:54:28;;;;;;;8.47;7.50;;;;;;;;;;5051024;28;20431;-92
2022/05/05 15:57:07;;;;;;;7.50;7.00;;;;;;;;;;5045650;28;20434;-94
2022/05/05 15:59:55;;;;;;;7.70;7.10;;;;;;;;;;5043403;28;20446;-89
2022/05/05 16:02:35;;;;;;;6.80;6.13;;;;;;;;;;5033658;28;20472;-92
2022/05/05 16:10:33;;;;;;;8.10;7.33;;;;;;;;;;3854579;26;20567;-90
2022/05/05 16:13:42;;;;;;;7.87;7.07;;;;;;;;;;5013180;28;20526;-91
2022/05/05 16:16:48;;;;;;;7.57;6.87;;;;;;;;;;5010845;28;20420;-89
2022/05/05 16:19:57;;;;;;;11.80;10.60;;;;;;;;;;5016960;28;20423;-90
2022/05/05 16:23:09;;;;;;;9.03;6.57;;;;;;;;;;5031353;28;20470;-91
2022/05/05 16:32:27;;;;;;;9.90;7.03;;;;;;;;;;5015427;28;20438;-89
2022/05/05 16:35:36;;;;;;;6.60;6.20;;;;;;;;;;5018566;28;20968;-90
2022/05/05 16:38:40;;;;;;;9.13;6.90;;;;;;;;;;5018477;28;20427;-93
2022/05/05 16:41:50;;;;;;;9.20;7.07;;;;;;;;;;5021855;28;20497;-91
2022/05/05 16:44:51;;;;;;;6.83;6.50;;;;;;;;;;5027837;28;20477;-91
2022/05/05 16:47:59;;;;;;;6.17;5.90;;;;;;;;;;5018764;28;20450;-88
2022/05/05 16:51:03;;;;;;;6.50;6.10;;;;;;;;;;5011466;28;20509;-91
2022/05/05 16:54:08;;;;;;;7.60;7.00;;;;;;;;;;5028185;28;20407;-90
2022/05/05 16:57:14;;;;;;;6.83;6.07;;;;;;;;;;5024775;28;20462;-91
2022/05/05 17:00:20;;;;;;;6.70;6.20;;;;;;;;;;5026555;28;20566;-90
2022/05/05 17:03:26;;;;;;;5.90;5.50;;;;;;;;;;5032797;28;20488;-89
2022/05/05 17:06:32;;;;;;;6.63;6.13;;;;;;;;;;5025517;28;20462;-90
2022/05/05 17:09:41;;;;;;;5.93;5.40;;;;;;;;;;5001945;28;20544;-90
2022/05/05 17:12:48;;;;;;;6.10;5.70;;;;;;;;;;5002993;28;20905;-89
2022/05/05 17:15:54;;;;;;;5.60;5.20;;;;;;;;;;4989924;28;20443;-89
2022/05/05 17:19:00;;;;;;;6.20;5.70;;;;;;;;;;4985596;28;20436;-91
2022/05/05 17:22:07;;;;;;;11.70;6.20;;;;;;;;;;4988735;28;20492;-90
2022/05/05 17:25:13;;;;;;;6.30;5.90;;;;;;;;;;4973670;28;20458;-88
2022/05/05 17:28:22;;;;;;;8.00;6.93;;;;;;;;;;4989310;28;20491;-89
2022/05/05 17:31:31;;;;;;;6.23;5.70;;;;;;;;;;4987617;28;20502;-90
2022/05/05 17:34:37;;;;;;;6.43;5.80;;;;;;;;;;4987902;28;20425;-89
2022/05/05 17:37:43;;;;;;;6.50;6.10;;;;;;;;;;4989495;28;20455;-89
2022/05/05 17:40:50;;;;;;;5.63;5.23;;;;;;;;;;4995280;28;20439;-90
2022/05/05 17:43:57;;;;;;;9.30;6.93;;;;;;;;;;4995588;28;20571;-91
2022/05/05 17:51:56;;;;;;;8.03;6.90;;;;;;;;;;5008660;28;21058;-91
2022/05/05 17:54:23;;;;;;;10.00;6.03;;;;;;;;;;4979576;28;20444;-91
2022/05/05 17:57:09;;;;;;;13.13;5.67;;;;;;;;;;4648352;28;10000489;-90
2022/05/05 18:00:16;;;;;;;5.97;5.47;;;;;;;;;;4986662;28;20196;-90
2022/05/05 18:03:20;;;;;;;7.73;6.13;;;;;;;;;;4983761;28;20535;-90
2022/05/05 18:06:26;;;;;;;5.53;5.03;;;;;;;;;;4987182;28;20511;-89
2022/05/05 18:09:32;;;;;;;5.10;4.90;;;;;;;;;;4998149;28;20479;-91
2022/05/05 18:12:18;;;;;;;4.53;4.30;;;;;;;;;;4997193;28;20635;-90
2022/05/05 18:14:44;;;;;;;4.47;4.17;;;;;;;;;;4977039;28;20480;-88
2022/05/05 18:17:10;;;;;;;4.40;4.20;;;;;;;;;;4976205;28;20457;-90
2022/05/05 18:19:38;;;;;;;6.93;4.70;;;;;;;;;;4976593;28;20422;-89
2022/05/05 18:22:04;;;;;;;4.70;4.40;;;;;;;;;;4993931;28;20440;-89
2022/05/05 18:24:31;;;;;;;3.97;3.87;;;;;;;;;;4992033;28;20448;-88
2022/05/05 18:26:57;;;;;;;5.27;4.80;;;;;;;;;;5004603;28;20420;-91
2022/05/05 18:29:45;;;;;;;4.57;4.33;;;;;;;;;;5001228;28;20483;-91
2022/05/05 18:32:51;;;;;;;4.50;4.40;;;;;;;;;;5048497;23;20582;-92
2022/05/05 18:35:57;;;;;;;8.23;5.70;;;;;;;;;;5006224;28;20505;-93
2022/05/05 18:39:03;;;;;;;5.13;4.73;;;;;;;;;;5007236;28;20444;-93
2022/05/05 18:42:09;;;;;;;6.60;6.00;;;;;;;;;;5007795;28;20521;-92
2022/05/05 18:45:15;;;;;;;4.50;4.10;;;;;;;;;;5000898;28;20918;-90
2022/05/05 18:48:21;;;;;;;12.00;4.97;;;;;;;;;;5010450;28;20446;-91
2022/05/05 18:51:29;;;;;;;5.90;3.90;;;;;;;;;;5010186;28;20431;-93
2022/05/05 18:57:28;;;;;;;5.30;4.53;;;;;;;;;;5148793;23;20511;-92
2022/05/05 19:00:40;;;;;;;5.23;4.83;;;;;;;;;;4986770;28;20424;-92
2022/05/05 19:03:45;;;;;;;4.90;4.60;;;;;;;;;;5327522;23;20607;-92
2022/05/05 19:06:52;;;;;;;5.63;5.10;;;;;;;;;;5003912;28;20440;-91
2022/05/05 19:09:59;;;;;;;4.60;4.30;;;;;;;;;;4962349;28;21004;-93
2022/05/05 19:13:03;;;;;;;5.00;4.60;;;;;;;;;;4972995;28;20916;-93
2022/05/05 19:16:13;;;;;;;6.63;3.70;;;;;;;;;;4973692;28;20439;-92
2022/05/05 19:19:22;;;;;;;4.13;4.03;;;;;;;;;;4969816;28;20612;-92
2022/05/05 19:22:27;;;;;;;4.17;3.97;;;;;;;;;;4968536;28;20429;-92
2022/05/05 19:25:32;;;;;;;4.80;4.40;;;;;;;;;;4973954;28;20855;-91
2022/05/05 19:28:38;;;;;;;4.47;4.17;;;;;;;;;;4977132;28;20436;-91
2022/05/05 19:31:44;;;;;;;5.23;4.80;;;;;;;;;;4956982;28;20446;-90
2022/05/05 19:34:50;;;;;;;5.87;5.57;;;;;;;;;;4966835;28;20425;-89
2022/05/05 19:37:59;;;;;;;5.50;5.20;;;;;;;;;;4962790;28;20655;-90
2022/05/05 19:41:05;;;;;;;5.40;5.17;;;;;;;;;;4970699;28;21073;-91
2022/05/05 19:44:11;;;;;;;6.33;5.80;;;;;;;;;;4955191;29;20832;-89
2022/05/05 19:47:16;;;;;;;4.90;4.60;;;;;;;;;;4967708;28;20429;-88
2022/05/05 19:50:28;;;;;;;5.10;4.80;;;;;;;;;;4966467;28;20413;-91
2022/05/05 19:53:28;;;;;;;5.60;5.23;;;;;;;;;;4970483;28;20898;-90
2022/05/05 20:02:43;;;;;;;6.10;5.73;;;;;;;;;;4964422;28;20531;-90
2022/05/05 20:08:54;;;;;;;8.57;7.77;;;;;;;;;;4963758;28;20541;-91
2022/05/05 20:12:00;;;;;;;6.63;6.20;;;;;;;;;;4968763;28;20472;-90
2022/05/05 20:15:06;;;;;;;5.47;5.10;;;;;;;;;;4989153;28;20429;-91
2022/05/05 20:18:21;;;;;;;5.43;5.17;;;;;;;;;;4959509;28;20430;-91
2022/05/05 20:21:27;;;;;;;5.20;5.00;;;;;;;;;;4958017;28;20434;-92
2022/05/05 20:24:33;;;;;;;8.50;7.80;;;;;;;;;;4960188;28;20485;-90
2022/05/05 20:27:42;;;;;;;5.60;5.30;;;;;;;;;;4968783;28;20436;-90
2022/05/05 20:30:50;;;;;;;5.77;5.47;;;;;;;;;;4965425;28;20434;-90
2022/05/05 20:33:53;;;;;;;7.33;6.60;;;;;;;;;;4963477;28;20444;-90
2022/05/05 20:37:01;;;;;;;7.40;6.90;;;;;;;;;;4968622;28;20440;-91
2022/05/05 20:40:05;;;;;;;5.27;5.00;;;;;;;;;;4962174;28;20459;-91